sensor_id;sensor_type;location;lat;lon;timestamp;P1;durP1;ratioP1;P2;durP2;ratioP2
9665;SDS011;4871;52.004;5.924;2023-07-22T00:00:00;8.20;;;7.50;;
9665;SDS011;4871;52.004;5.924;2023-07-22T00:01:00;8.20;;;7.50;;
9665;SDS011;4871;52.004;5.924;2023-07-22T00:02:00;8.20;;;7.50;;
9665;SDS011;4871;52.004;5.924;2023-07-22T00:03:00;8.20;;;7.50;;
9665;SDS011;4871;52.004;5.924;2023-07-22T00:04:00;8.20;;;7.50;;
9665;SDS011;4871;52.004;5.924;2023-07-22T00:05:00;7.80;;;7.20;;
9665;SDS011;4871;52.004;5.924;2023-07-22T00:06:03;7.80;;;7.20;;
9665;SDS011;4871;52.004;5.924;2023-07-22T00:07:00;7.80;;;7.20;;
9665;SDS011;4871;52.004;5.924;2023-07-22T00:08:00;7.80;;;7.20;;
9665;SDS011;4871;52.004;5.924;2023-07-22T00:09:00;7.80;;;7.20;;
9665;SDS011;4871;52.004;5.924;2023-07-22T00:10:00;7.80;;;7.20;;
9665;SDS011;4871;52.004;5.924;2023-07-22T00:11:00;7.80;;;7.20;;
9665;SDS011;4871;52.004;5.924;2023-07-22T00:12:00;7.80;;;7.20;;
9665;SDS011;4871;52.004;5.924;2023-07-22T00:13:01;7.80;;;7.20;;
9665;SDS011;4871;52.004;5.924;2023-07-22T00:14:00;7.80;;;7.20;;
9665;SDS011;4871;52.004;5.924;2023-07-22T00:15:00;7.80;;;7.20;;
9665;SDS011;4871;52.004;5.924;2023-07-22T00:16:00;7.80;;;7.20;;
9665;SDS011;4871;52.004;5.924;2023-07-22T00:17:00;7.80;;;7.20;;
9665;SDS011;4871;52.004;5.924;2023-07-22T00:18:00;7.80;;;7.20;;
9665;SDS011;4871;52.004;5.924;2023-07-22T00:19:00;7.80;;;7.20;;
9665;SDS011;4871;52.004;5.924;2023-07-22T00:20:00;7.80;;;7.20;;
9665;SDS011;4871;52.004;5.924;2023-07-22T00:21:00;7.80;;;7.20;;
9665;SDS011;4871;52.004;5.924;2023-07-22T00:22:00;7.80;;;7.20;;
9665;SDS011;4871;52.004;5.924;2023-07-22T00:23:00;7.80;;;7.20;;
9665;SDS011;4871;52.004;5.924;2023-07-22T00:24:00;7.80;;;7.20;;
9665;SDS011;4871;52.004;5.924;2023-07-22T00:25:00;7.80;;;7.20;;
9665;SDS011;4871;52.004;5.924;2023-07-22T00:26:00;7.80;;;7.20;;
9665;SDS011;4871;52.004;5.924;2023-07-22T00:27:00;7.80;;;7.20;;
9665;SDS011;4871;52.004;5.924;2023-07-22T00:28:00;7.80;;;7.20;;
9665;SDS011;4871;52.004;5.924;2023-07-22T00:29:00;7.80;;;7.20;;
9665;SDS011;4871;52.004;5.924;2023-07-22T00:30:00;7.80;;;7.20;;
9665;SDS011;4871;52.004;5.924;2023-07-22T00:31:01;7.80;;;7.20;;
9665;SDS011;4871;52.004;5.924;2023-07-22T00:32:00;7.80;;;7.20;;
9665;SDS011;4871;52.004;5.924;2023-07-22T00:33:00;7.80;;;7.20;;
9665;SDS011;4871;52.004;5.924;2023-07-22T00:34:00;7.80;;;7.20;;
9665;SDS011;4871;52.004;5.924;2023-07-22T00:35:00;8.70;;;8.00;;
9665;SDS011;4871;52.004;5.924;2023-07-22T00:36:00;8.70;;;8.00;;
9665;SDS011;4871;52.004;5.924;2023-07-22T00:37:00;8.70;;;8.00;;
9665;SDS011;4871;52.004;5.924;2023-07-22T00:38:00;8.70;;;8.00;;
9665;SDS011;4871;52.004;5.924;2023-07-22T00:39:01;8.70;;;8.00;;
9665;SDS011;4871;52.004;5.924;2023-07-22T00:40:01;8.70;;;8.00;;
9665;SDS011;4871;52.004;5.924;2023-07-22T00:41:00;8.70;;;8.00;;
9665;SDS011;4871;52.004;5.924;2023-07-22T00:42:00;8.70;;;8.00;;
9665;SDS011;4871;52.004;5.924;2023-07-22T00:43:00;8.70;;;8.00;;
9665;SDS011;4871;52.004;5.924;2023-07-22T00:44:00;8.70;;;8.00;;
9665;SDS011;4871;52.004;5.924;2023-07-22T00:45:00;8.70;;;8.00;;
9665;SDS011;4871;52.004;5.924;2023-07-22T00:46:00;8.70;;;8.00;;
9665;SDS011;4871;52.004;5.924;2023-07-22T00:47:00;8.70;;;8.00;;
9665;SDS011;4871;52.004;5.924;2023-07-22T00:48:00;8.70;;;8.00;;
9665;SDS011;4871;52.004;5.924;2023-07-22T00:49:00;8.70;;;8.00;;
9665;SDS011;4871;52.004;5.924;2023-07-22T00:50:00;8.70;;;8.00;;
9665;SDS011;4871;52.004;5.924;2023-07-22T00:51:00;8.70;;;8.00;;
9665;SDS011;4871;52.004;5.924;2023-07-22T00:52:00;8.70;;;8.00;;
9665;SDS011;4871;52.004;5.924;2023-07-22T00:53:00;8.70;;;8.00;;
9665;SDS011;4871;52.004;5.924;2023-07-22T00:54:00;8.70;;;8.00;;
9665;SDS011;4871;52.004;5.924;2023-07-22T00:55:00;8.70;;;8.00;;
9665;SDS011;4871;52.004;5.924;2023-07-22T00:56:00;8.70;;;8.00;;
9665;SDS011;4871;52.004;5.924;2023-07-22T00:57:00;8.70;;;8.00;;
9665;SDS011;4871;52.004;5.924;2023-07-22T00:58:00;8.70;;;8.00;;
9665;SDS011;4871;52.004;5.924;2023-07-22T00:59:00;8.70;;;8.00;;
9665;SDS011;4871;52.004;5.924;2023-07-22T01:00:00;8.70;;;8.00;;
9665;SDS011;4871;52.004;5.924;2023-07-22T01:01:00;8.70;;;8.00;;
9665;SDS011;4871;52.004;5.924;2023-07-22T01:03:00;8.70;;;8.00;;
9665;SDS011;4871;52.004;5.924;2023-07-22T01:04:01;8.70;;;8.00;;
9665;SDS011;4871;52.004;5.924;2023-07-22T01:05:00;8.90;;;8.00;;
9665;SDS011;4871;52.004;5.924;2023-07-22T01:06:01;8.90;;;8.00;;
9665;SDS011;4871;52.004;5.924;2023-07-22T01:07:00;8.90;;;8.00;;
9665;SDS011;4871;52.004;5.924;2023-07-22T01:10:00;8.90;;;8.00;;
9665;SDS011;4871;52.004;5.924;2023-07-22T01:11:00;8.90;;;8.00;;
9665;SDS011;4871;52.004;5.924;2023-07-22T01:12:00;8.90;;;8.00;;
9665;SDS011;4871;52.004;5.924;2023-07-22T01:13:00;8.90;;;8.00;;
9665;SDS011;4871;52.004;5.924;2023-07-22T01:14:01;8.90;;;8.00;;
9665;SDS011;4871;52.004;5.924;2023-07-22T01:15:02;unavailable;;;unavailable;;
9665;SDS011;4871;52.004;5.924;2023-07-22T01:16:00;8.90;;;8.00;;
9665;SDS011;4871;52.004;5.924;2023-07-22T01:17:00;8.90;;;8.00;;
9665;SDS011;4871;52.004;5.924;2023-07-22T01:18:01;8.90;;;8.00;;
9665;SDS011;4871;52.004;5.924;2023-07-22T01:19:00;8.90;;;8.00;;
9665;SDS011;4871;52.004;5.924;2023-07-22T01:20:00;8.90;;;8.00;;
9665;SDS011;4871;52.004;5.924;2023-07-22T01:21:01;8.90;;;8.00;;
9665;SDS011;4871;52.004;5.924;2023-07-22T01:22:00;8.90;;;8.00;;
9665;SDS011;4871;52.004;5.924;2023-07-22T01:23:00;8.90;;;8.00;;
9665;SDS011;4871;52.004;5.924;2023-07-22T01:24:00;8.90;;;8.00;;
9665;SDS011;4871;52.004;5.924;2023-07-22T01:25:00;8.90;;;8.00;;
9665;SDS011;4871;52.004;5.924;2023-07-22T01:26:00;8.90;;;8.00;;
9665;SDS011;4871;52.004;5.924;2023-07-22T01:27:00;8.90;;;8.00;;
9665;SDS011;4871;52.004;5.924;2023-07-22T01:28:00;8.90;;;8.00;;
9665;SDS011;4871;52.004;5.924;2023-07-22T01:29:02;8.90;;;8.00;;
9665;SDS011;4871;52.004;5.924;2023-07-22T01:30:02;8.90;;;8.00;;
9665;SDS011;4871;52.004;5.924;2023-07-22T01:31:00;8.90;;;8.00;;
9665;SDS011;4871;52.004;5.924;2023-07-22T01:32:00;8.90;;;8.00;;
9665;SDS011;4871;52.004;5.924;2023-07-22T01:33:00;8.90;;;8.00;;
9665;SDS011;4871;52.004;5.924;2023-07-22T01:34:00;8.90;;;8.00;;
9665;SDS011;4871;52.004;5.924;2023-07-22T01:35:00;8.30;;;7.00;;
9665;SDS011;4871;52.004;5.924;2023-07-22T01:36:00;8.30;;;7.00;;
9665;SDS011;4871;52.004;5.924;2023-07-22T01:37:00;8.30;;;7.00;;
9665;SDS011;4871;52.004;5.924;2023-07-22T01:38:00;8.30;;;7.00;;
9665;SDS011;4871;52.004;5.924;2023-07-22T01:39:00;8.30;;;7.00;;
9665;SDS011;4871;52.004;5.924;2023-07-22T01:40:00;8.30;;;7.00;;
9665;SDS011;4871;52.004;5.924;2023-07-22T01:41:00;8.30;;;7.00;;
9665;SDS011;4871;52.004;5.924;2023-07-22T01:42:00;8.30;;;7.00;;
9665;SDS011;4871;52.004;5.924;2023-07-22T01:43:00;8.30;;;7.00;;
9665;SDS011;4871;52.004;5.924;2023-07-22T01:44:00;8.30;;;7.00;;
9665;SDS011;4871;52.004;5.924;2023-07-22T01:45:01;8.30;;;7.00;;
9665;SDS011;4871;52.004;5.924;2023-07-22T01:46:01;8.30;;;7.00;;
9665;SDS011;4871;52.004;5.924;2023-07-22T01:47:01;8.30;;;7.00;;
9665;SDS011;4871;52.004;5.924;2023-07-22T01:48:00;8.30;;;7.00;;
9665;SDS011;4871;52.004;5.924;2023-07-22T01:49:00;8.30;;;7.00;;
9665;SDS011;4871;52.004;5.924;2023-07-22T01:50:00;8.30;;;7.00;;
9665;SDS011;4871;52.004;5.924;2023-07-22T01:51:00;8.30;;;7.00;;
9665;SDS011;4871;52.004;5.924;2023-07-22T01:52:00;8.30;;;7.00;;
9665;SDS011;4871;52.004;5.924;2023-07-22T01:53:00;8.30;;;7.00;;
9665;SDS011;4871;52.004;5.924;2023-07-22T01:54:01;8.30;;;7.00;;
9665;SDS011;4871;52.004;5.924;2023-07-22T01:55:00;8.30;;;7.00;;
9665;SDS011;4871;52.004;5.924;2023-07-22T01:56:00;8.30;;;7.00;;
9665;SDS011;4871;52.004;5.924;2023-07-22T01:57:00;8.30;;;7.00;;
9665;SDS011;4871;52.004;5.924;2023-07-22T01:58:00;8.30;;;7.00;;
9665;SDS011;4871;52.004;5.924;2023-07-22T01:59:00;8.30;;;7.00;;
9665;SDS011;4871;52.004;5.924;2023-07-22T02:00:00;8.30;;;7.00;;
9665;SDS011;4871;52.004;5.924;2023-07-22T02:01:00;8.30;;;7.00;;
9665;SDS011;4871;52.004;5.924;2023-07-22T02:02:00;8.30;;;7.00;;
9665;SDS011;4871;52.004;5.924;2023-07-22T02:03:00;8.30;;;7.00;;
9665;SDS011;4871;52.004;5.924;2023-07-22T02:04:00;8.30;;;7.00;;
9665;SDS011;4871;52.004;5.924;2023-07-22T02:05:00;11.80;;;8.90;;
9665;SDS011;4871;52.004;5.924;2023-07-22T02:06:01;11.80;;;8.90;;
9665;SDS011;4871;52.004;5.924;2023-07-22T02:07:00;11.80;;;8.90;;
9665;SDS011;4871;52.004;5.924;2023-07-22T02:08:00;11.80;;;8.90;;
9665;SDS011;4871;52.004;5.924;2023-07-22T02:09:06;11.80;;;8.90;;
9665;SDS011;4871;52.004;5.924;2023-07-22T02:10:00;11.80;;;8.90;;
9665;SDS011;4871;52.004;5.924;2023-07-22T02:11:01;11.80;;;8.90;;
9665;SDS011;4871;52.004;5.924;2023-07-22T02:12:00;11.80;;;8.90;;
9665;SDS011;4871;52.004;5.924;2023-07-22T02:13:00;11.80;;;8.90;;
9665;SDS011;4871;52.004;5.924;2023-07-22T02:14:00;11.80;;;8.90;;
9665;SDS011;4871;52.004;5.924;2023-07-22T02:15:00;11.80;;;8.90;;
9665;SDS011;4871;52.004;5.924;2023-07-22T02:16:00;11.80;;;8.90;;
9665;SDS011;4871;52.004;5.924;2023-07-22T02:17:00;11.80;;;8.90;;
9665;SDS011;4871;52.004;5.924;2023-07-22T02:18:00;11.80;;;8.90;;
9665;SDS011;4871;52.004;5.924;2023-07-22T02:19:00;11.80;;;8.90;;
9665;SDS011;4871;52.004;5.924;2023-07-22T02:20:00;11.80;;;8.90;;
9665;SDS011;4871;52.004;5.924;2023-07-22T02:21:00;11.80;;;8.90;;
9665;SDS011;4871;52.004;5.924;2023-07-22T02:22:00;11.80;;;8.90;;
9665;SDS011;4871;52.004;5.924;2023-07-22T02:23:00;11.80;;;8.90;;
9665;SDS011;4871;52.004;5.924;2023-07-22T02:24:00;11.80;;;8.90;;
9665;SDS011;4871;52.004;5.924;2023-07-22T02:25:00;11.80;;;8.90;;
9665;SDS011;4871;52.004;5.924;2023-07-22T02:26:00;11.80;;;8.90;;
9665;SDS011;4871;52.004;5.924;2023-07-22T02:27:00;11.80;;;8.90;;
9665;SDS011;4871;52.004;5.924;2023-07-22T02:28:00;11.80;;;8.90;;
9665;SDS011;4871;52.004;5.924;2023-07-22T02:29:00;11.80;;;8.90;;
9665;SDS011;4871;52.004;5.924;2023-07-22T02:30:00;11.80;;;8.90;;
9665;SDS011;4871;52.004;5.924;2023-07-22T02:31:02;11.80;;;8.90;;
9665;SDS011;4871;52.004;5.924;2023-07-22T02:32:01;11.80;;;8.90;;
9665;SDS011;4871;52.004;5.924;2023-07-22T02:33:00;11.80;;;8.90;;
9665;SDS011;4871;52.004;5.924;2023-07-22T02:34:00;11.80;;;8.90;;
9665;SDS011;4871;52.004;5.924;2023-07-22T02:35:00;11.50;;;9.40;;
9665;SDS011;4871;52.004;5.924;2023-07-22T02:36:00;11.50;;;9.40;;
9665;SDS011;4871;52.004;5.924;2023-07-22T02:37:00;11.50;;;9.40;;
9665;SDS011;4871;52.004;5.924;2023-07-22T02:38:02;11.50;;;9.40;;
9665;SDS011;4871;52.004;5.924;2023-07-22T02:39:00;11.50;;;9.40;;
9665;SDS011;4871;52.004;5.924;2023-07-22T02:40:00;11.50;;;9.40;;
9665;SDS011;4871;52.004;5.924;2023-07-22T02:41:01;11.50;;;9.40;;
9665;SDS011;4871;52.004;5.924;2023-07-22T02:42:00;11.50;;;9.40;;
9665;SDS011;4871;52.004;5.924;2023-07-22T02:43:00;11.50;;;9.40;;
9665;SDS011;4871;52.004;5.924;2023-07-22T02:44:00;11.50;;;9.40;;
9665;SDS011;4871;52.004;5.924;2023-07-22T02:45:00;11.50;;;9.40;;
9665;SDS011;4871;52.004;5.924;2023-07-22T02:46:00;11.50;;;9.40;;
9665;SDS011;4871;52.004;5.924;2023-07-22T02:47:00;11.50;;;9.40;;
9665;SDS011;4871;52.004;5.924;2023-07-22T02:48:00;11.50;;;9.40;;
9665;SDS011;4871;52.004;5.924;2023-07-22T02:49:00;11.50;;;9.40;;
9665;SDS011;4871;52.004;5.924;2023-07-22T02:50:00;11.50;;;9.40;;
9665;SDS011;4871;52.004;5.924;2023-07-22T02:51:01;11.50;;;9.40;;
9665;SDS011;4871;52.004;5.924;2023-07-22T02:52:01;11.50;;;9.40;;
9665;SDS011;4871;52.004;5.924;2023-07-22T02:53:00;11.50;;;9.40;;
9665;SDS011;4871;52.004;5.924;2023-07-22T02:54:00;11.50;;;9.40;;
9665;SDS011;4871;52.004;5.924;2023-07-22T02:55:04;11.50;;;9.40;;
9665;SDS011;4871;52.004;5.924;2023-07-22T02:56:00;11.50;;;9.40;;
9665;SDS011;4871;52.004;5.924;2023-07-22T02:57:00;11.50;;;9.40;;
9665;SDS011;4871;52.004;5.924;2023-07-22T02:58:00;11.50;;;9.40;;
9665;SDS011;4871;52.004;5.924;2023-07-22T02:59:00;11.50;;;9.40;;
9665;SDS011;4871;52.004;5.924;2023-07-22T03:00:00;11.50;;;9.40;;
9665;SDS011;4871;52.004;5.924;2023-07-22T03:01:00;11.50;;;9.40;;
9665;SDS011;4871;52.004;5.924;2023-07-22T03:02:00;11.50;;;9.40;;
9665;SDS011;4871;52.004;5.924;2023-07-22T03:03:00;11.50;;;9.40;;
9665;SDS011;4871;52.004;5.924;2023-07-22T03:04:00;11.50;;;9.40;;
9665;SDS011;4871;52.004;5.924;2023-07-22T03:05:00;10.90;;;9.80;;
9665;SDS011;4871;52.004;5.924;2023-07-22T03:06:00;10.90;;;9.80;;
9665;SDS011;4871;52.004;5.924;2023-07-22T03:07:00;10.90;;;9.80;;
9665;SDS011;4871;52.004;5.924;2023-07-22T03:08:00;10.90;;;9.80;;
9665;SDS011;4871;52.004;5.924;2023-07-22T03:09:00;10.90;;;9.80;;
9665;SDS011;4871;52.004;5.924;2023-07-22T03:10:00;10.90;;;9.80;;
9665;SDS011;4871;52.004;5.924;2023-07-22T03:11:00;10.90;;;9.80;;
9665;SDS011;4871;52.004;5.924;2023-07-22T03:12:00;10.90;;;9.80;;
9665;SDS011;4871;52.004;5.924;2023-07-22T03:13:03;10.90;;;9.80;;
9665;SDS011;4871;52.004;5.924;2023-07-22T03:14:02;10.90;;;9.80;;
9665;SDS011;4871;52.004;5.924;2023-07-22T03:15:00;10.90;;;9.80;;
9665;SDS011;4871;52.004;5.924;2023-07-22T03:16:03;10.90;;;9.80;;
9665;SDS011;4871;52.004;5.924;2023-07-22T03:17:00;10.90;;;9.80;;
9665;SDS011;4871;52.004;5.924;2023-07-22T03:18:00;10.90;;;9.80;;
9665;SDS011;4871;52.004;5.924;2023-07-22T03:19:00;10.90;;;9.80;;
9665;SDS011;4871;52.004;5.924;2023-07-22T03:20:01;10.90;;;9.80;;
9665;SDS011;4871;52.004;5.924;2023-07-22T03:21:00;10.90;;;9.80;;
9665;SDS011;4871;52.004;5.924;2023-07-22T03:22:00;10.90;;;9.80;;
9665;SDS011;4871;52.004;5.924;2023-07-22T03:23:00;10.90;;;9.80;;
9665;SDS011;4871;52.004;5.924;2023-07-22T03:24:00;10.90;;;9.80;;
9665;SDS011;4871;52.004;5.924;2023-07-22T03:25:00;10.90;;;9.80;;
9665;SDS011;4871;52.004;5.924;2023-07-22T03:26:00;10.90;;;9.80;;
9665;SDS011;4871;52.004;5.924;2023-07-22T03:27:00;10.90;;;9.80;;
9665;SDS011;4871;52.004;5.924;2023-07-22T03:28:00;10.90;;;9.80;;
9665;SDS011;4871;52.004;5.924;2023-07-22T03:29:00;10.90;;;9.80;;
9665;SDS011;4871;52.004;5.924;2023-07-22T03:30:00;10.90;;;9.80;;
9665;SDS011;4871;52.004;5.924;2023-07-22T03:31:00;10.90;;;9.80;;
9665;SDS011;4871;52.004;5.924;2023-07-22T03:32:00;10.90;;;9.80;;
9665;SDS011;4871;52.004;5.924;2023-07-22T03:33:00;10.90;;;9.80;;
9665;SDS011;4871;52.004;5.924;2023-07-22T03:34:00;10.90;;;9.80;;
9665;SDS011;4871;52.004;5.924;2023-07-22T03:35:01;11.60;;;10.10;;
9665;SDS011;4871;52.004;5.924;2023-07-22T03:36:00;11.60;;;10.10;;
9665;SDS011;4871;52.004;5.924;2023-07-22T03:37:00;11.60;;;10.10;;
9665;SDS011;4871;52.004;5.924;2023-07-22T03:38:00;11.60;;;10.10;;
9665;SDS011;4871;52.004;5.924;2023-07-22T03:39:00;11.60;;;10.10;;
9665;SDS011;4871;52.004;5.924;2023-07-22T03:40:00;11.60;;;10.10;;
9665;SDS011;4871;52.004;5.924;2023-07-22T03:41:00;11.60;;;10.10;;
9665;SDS011;4871;52.004;5.924;2023-07-22T03:42:00;11.60;;;10.10;;
9665;SDS011;4871;52.004;5.924;2023-07-22T03:43:00;11.60;;;10.10;;
9665;SDS011;4871;52.004;5.924;2023-07-22T03:44:00;11.60;;;10.10;;
9665;SDS011;4871;52.004;5.924;2023-07-22T03:45:01;11.60;;;10.10;;
9665;SDS011;4871;52.004;5.924;2023-07-22T03:46:00;11.60;;;10.10;;
9665;SDS011;4871;52.004;5.924;2023-07-22T03:47:00;11.60;;;10.10;;
9665;SDS011;4871;52.004;5.924;2023-07-22T03:48:00;11.60;;;10.10;;
9665;SDS011;4871;52.004;5.924;2023-07-22T03:49:00;11.60;;;10.10;;
9665;SDS011;4871;52.004;5.924;2023-07-22T03:50:00;11.60;;;10.10;;
9665;SDS011;4871;52.004;5.924;2023-07-22T03:51:00;11.60;;;10.10;;
9665;SDS011;4871;52.004;5.924;2023-07-22T03:52:00;11.60;;;10.10;;
9665;SDS011;4871;52.004;5.924;2023-07-22T03:53:00;11.60;;;10.10;;
9665;SDS011;4871;52.004;5.924;2023-07-22T03:54:00;11.60;;;10.10;;
9665;SDS011;4871;52.004;5.924;2023-07-22T03:55:00;11.60;;;10.10;;
9665;SDS011;4871;52.004;5.924;2023-07-22T03:56:00;11.60;;;10.10;;
9665;SDS011;4871;52.004;5.924;2023-07-22T03:57:00;11.60;;;10.10;;
9665;SDS011;4871;52.004;5.924;2023-07-22T03:58:00;11.60;;;10.10;;
9665;SDS011;4871;52.004;5.924;2023-07-22T03:59:00;11.60;;;10.10;;
9665;SDS011;4871;52.004;5.924;2023-07-22T04:00:00;11.60;;;10.10;;
9665;SDS011;4871;52.004;5.924;2023-07-22T04:01:00;11.60;;;10.10;;
9665;SDS011;4871;52.004;5.924;2023-07-22T04:02:00;11.60;;;10.10;;
9665;SDS011;4871;52.004;5.924;2023-07-22T04:03:00;11.60;;;10.10;;
9665;SDS011;4871;52.004;5.924;2023-07-22T04:04:00;11.60;;;10.10;;
9665;SDS011;4871;52.004;5.924;2023-07-22T04:05:00;14.20;;;10.20;;
9665;SDS011;4871;52.004;5.924;2023-07-22T04:06:00;14.20;;;10.20;;
9665;SDS011;4871;52.004;5.924;2023-07-22T04:07:00;14.20;;;10.20;;
9665;SDS011;4871;52.004;5.924;2023-07-22T04:08:00;14.20;;;10.20;;
9665;SDS011;4871;52.004;5.924;2023-07-22T04:09:00;14.20;;;10.20;;
9665;SDS011;4871;52.004;5.924;2023-07-22T04:10:00;14.20;;;10.20;;
9665;SDS011;4871;52.004;5.924;2023-07-22T04:11:00;14.20;;;10.20;;
9665;SDS011;4871;52.004;5.924;2023-07-22T04:12:00;14.20;;;10.20;;
9665;SDS011;4871;52.004;5.924;2023-07-22T04:13:00;14.20;;;10.20;;
9665;SDS011;4871;52.004;5.924;2023-07-22T04:14:00;14.20;;;10.20;;
9665;SDS011;4871;52.004;5.924;2023-07-22T04:15:00;14.20;;;10.20;;
9665;SDS011;4871;52.004;5.924;2023-07-22T04:16:00;14.20;;;10.20;;
9665;SDS011;4871;52.004;5.924;2023-07-22T04:17:00;14.20;;;10.20;;
9665;SDS011;4871;52.004;5.924;2023-07-22T04:18:00;14.20;;;10.20;;
9665;SDS011;4871;52.004;5.924;2023-07-22T04:19:01;14.20;;;10.20;;
9665;SDS011;4871;52.004;5.924;2023-07-22T04:20:00;14.20;;;10.20;;
9665;SDS011;4871;52.004;5.924;2023-07-22T04:21:00;14.20;;;10.20;;
9665;SDS011;4871;52.004;5.924;2023-07-22T04:22:04;14.20;;;10.20;;
9665;SDS011;4871;52.004;5.924;2023-07-22T04:23:00;14.20;;;10.20;;
9665;SDS011;4871;52.004;5.924;2023-07-22T04:24:00;14.20;;;10.20;;
9665;SDS011;4871;52.004;5.924;2023-07-22T04:25:00;14.20;;;10.20;;
9665;SDS011;4871;52.004;5.924;2023-07-22T04:26:01;14.20;;;10.20;;
9665;SDS011;4871;52.004;5.924;2023-07-22T04:27:00;14.20;;;10.20;;
9665;SDS011;4871;52.004;5.924;2023-07-22T04:28:00;14.20;;;10.20;;
9665;SDS011;4871;52.004;5.924;2023-07-22T04:29:00;14.20;;;10.20;;
9665;SDS011;4871;52.004;5.924;2023-07-22T04:30:00;14.20;;;10.20;;
9665;SDS011;4871;52.004;5.924;2023-07-22T04:31:00;14.20;;;10.20;;
9665;SDS011;4871;52.004;5.924;2023-07-22T04:32:00;14.20;;;10.20;;
9665;SDS011;4871;52.004;5.924;2023-07-22T04:33:00;14.20;;;10.20;;
9665;SDS011;4871;52.004;5.924;2023-07-22T04:34:00;14.20;;;10.20;;
9665;SDS011;4871;52.004;5.924;2023-07-22T04:35:00;14.60;;;10.40;;
9665;SDS011;4871;52.004;5.924;2023-07-22T04:36:00;14.60;;;10.40;;
9665;SDS011;4871;52.004;5.924;2023-07-22T04:37:01;14.60;;;10.40;;
9665;SDS011;4871;52.004;5.924;2023-07-22T04:38:00;14.60;;;10.40;;
9665;SDS011;4871;52.004;5.924;2023-07-22T04:39:00;14.60;;;10.40;;
9665;SDS011;4871;52.004;5.924;2023-07-22T04:40:00;14.60;;;10.40;;
9665;SDS011;4871;52.004;5.924;2023-07-22T04:41:02;14.60;;;10.40;;
9665;SDS011;4871;52.004;5.924;2023-07-22T04:42:00;14.60;;;10.40;;
9665;SDS011;4871;52.004;5.924;2023-07-22T04:43:00;14.60;;;10.40;;
9665;SDS011;4871;52.004;5.924;2023-07-22T04:44:00;14.60;;;10.40;;
9665;SDS011;4871;52.004;5.924;2023-07-22T04:45:00;14.60;;;10.40;;
9665;SDS011;4871;52.004;5.924;2023-07-22T04:46:00;14.60;;;10.40;;
9665;SDS011;4871;52.004;5.924;2023-07-22T04:47:00;14.60;;;10.40;;
9665;SDS011;4871;52.004;5.924;2023-07-22T04:48:01;14.60;;;10.40;;
9665;SDS011;4871;52.004;5.924;2023-07-22T04:49:00;14.60;;;10.40;;
9665;SDS011;4871;52.004;5.924;2023-07-22T04:50:00;14.60;;;10.40;;
9665;SDS011;4871;52.004;5.924;2023-07-22T04:51:00;14.60;;;10.40;;
9665;SDS011;4871;52.004;5.924;2023-07-22T04:52:00;14.60;;;10.40;;
9665;SDS011;4871;52.004;5.924;2023-07-22T04:53:00;14.60;;;10.40;;
9665;SDS011;4871;52.004;5.924;2023-07-22T04:54:00;14.60;;;10.40;;
9665;SDS011;4871;52.004;5.924;2023-07-22T04:55:00;14.60;;;10.40;;
9665;SDS011;4871;52.004;5.924;2023-07-22T04:56:00;14.60;;;10.40;;
9665;SDS011;4871;52.004;5.924;2023-07-22T04:57:00;14.60;;;10.40;;
9665;SDS011;4871;52.004;5.924;2023-07-22T04:58:00;14.60;;;10.40;;
9665;SDS011;4871;52.004;5.924;2023-07-22T04:59:00;14.60;;;10.40;;
9665;SDS011;4871;52.004;5.924;2023-07-22T05:00:04;14.60;;;10.40;;
9665;SDS011;4871;52.004;5.924;2023-07-22T05:01:00;14.60;;;10.40;;
9665;SDS011;4871;52.004;5.924;2023-07-22T05:02:00;14.60;;;10.40;;
9665;SDS011;4871;52.004;5.924;2023-07-22T05:03:00;14.60;;;10.40;;
9665;SDS011;4871;52.004;5.924;2023-07-22T05:04:00;14.60;;;10.40;;
9665;SDS011;4871;52.004;5.924;2023-07-22T05:05:00;15.70;;;11.70;;
9665;SDS011;4871;52.004;5.924;2023-07-22T05:06:01;15.70;;;11.70;;
9665;SDS011;4871;52.004;5.924;2023-07-22T05:07:00;15.70;;;11.70;;
9665;SDS011;4871;52.004;5.924;2023-07-22T05:08:00;15.70;;;11.70;;
9665;SDS011;4871;52.004;5.924;2023-07-22T05:09:00;15.70;;;11.70;;
9665;SDS011;4871;52.004;5.924;2023-07-22T05:10:00;15.70;;;11.70;;
9665;SDS011;4871;52.004;5.924;2023-07-22T05:11:00;15.70;;;11.70;;
9665;SDS011;4871;52.004;5.924;2023-07-22T05:12:00;15.70;;;11.70;;
9665;SDS011;4871;52.004;5.924;2023-07-22T05:13:00;15.70;;;11.70;;
9665;SDS011;4871;52.004;5.924;2023-07-22T05:14:00;15.70;;;11.70;;
9665;SDS011;4871;52.004;5.924;2023-07-22T05:15:00;15.70;;;11.70;;
9665;SDS011;4871;52.004;5.924;2023-07-22T05:16:00;15.70;;;11.70;;
9665;SDS011;4871;52.004;5.924;2023-07-22T05:17:00;15.70;;;11.70;;
9665;SDS011;4871;52.004;5.924;2023-07-22T05:18:00;15.70;;;11.70;;
9665;SDS011;4871;52.004;5.924;2023-07-22T05:19:00;15.70;;;11.70;;
9665;SDS011;4871;52.004;5.924;2023-07-22T05:20:00;15.70;;;11.70;;
9665;SDS011;4871;52.004;5.924;2023-07-22T05:21:00;15.70;;;11.70;;
9665;SDS011;4871;52.004;5.924;2023-07-22T05:22:00;15.70;;;11.70;;
9665;SDS011;4871;52.004;5.924;2023-07-22T05:23:00;15.70;;;11.70;;
9665;SDS011;4871;52.004;5.924;2023-07-22T05:24:00;15.70;;;11.70;;
9665;SDS011;4871;52.004;5.924;2023-07-22T05:25:00;15.70;;;11.70;;
9665;SDS011;4871;52.004;5.924;2023-07-22T05:26:00;15.70;;;11.70;;
9665;SDS011;4871;52.004;5.924;2023-07-22T05:27:00;15.70;;;11.70;;
9665;SDS011;4871;52.004;5.924;2023-07-22T05:28:00;15.70;;;11.70;;
9665;SDS011;4871;52.004;5.924;2023-07-22T05:29:00;15.70;;;11.70;;
9665;SDS011;4871;52.004;5.924;2023-07-22T05:30:00;15.70;;;11.70;;
9665;SDS011;4871;52.004;5.924;2023-07-22T05:31:00;15.70;;;11.70;;
9665;SDS011;4871;52.004;5.924;2023-07-22T05:32:00;15.70;;;11.70;;
9665;SDS011;4871;52.004;5.924;2023-07-22T05:33:00;15.70;;;11.70;;
9665;SDS011;4871;52.004;5.924;2023-07-22T05:34:00;15.70;;;11.70;;
9665;SDS011;4871;52.004;5.924;2023-07-22T05:35:01;15.20;;;11.90;;
9665;SDS011;4871;52.004;5.924;2023-07-22T05:36:00;15.20;;;11.90;;
9665;SDS011;4871;52.004;5.924;2023-07-22T05:37:00;15.20;;;11.90;;
9665;SDS011;4871;52.004;5.924;2023-07-22T05:38:03;15.20;;;11.90;;
9665;SDS011;4871;52.004;5.924;2023-07-22T05:39:00;15.20;;;11.90;;
9665;SDS011;4871;52.004;5.924;2023-07-22T05:40:01;15.20;;;11.90;;
9665;SDS011;4871;52.004;5.924;2023-07-22T05:41:00;15.20;;;11.90;;
9665;SDS011;4871;52.004;5.924;2023-07-22T05:42:00;15.20;;;11.90;;
9665;SDS011;4871;52.004;5.924;2023-07-22T05:43:00;15.20;;;11.90;;
9665;SDS011;4871;52.004;5.924;2023-07-22T05:44:00;15.20;;;11.90;;
9665;SDS011;4871;52.004;5.924;2023-07-22T05:45:01;15.20;;;11.90;;
9665;SDS011;4871;52.004;5.924;2023-07-22T05:46:00;15.20;;;11.90;;
9665;SDS011;4871;52.004;5.924;2023-07-22T05:47:00;15.20;;;11.90;;
9665;SDS011;4871;52.004;5.924;2023-07-22T05:48:00;15.20;;;11.90;;
9665;SDS011;4871;52.004;5.924;2023-07-22T05:49:00;15.20;;;11.90;;
9665;SDS011;4871;52.004;5.924;2023-07-22T05:50:00;15.20;;;11.90;;
9665;SDS011;4871;52.004;5.924;2023-07-22T05:51:00;15.20;;;11.90;;
9665;SDS011;4871;52.004;5.924;2023-07-22T05:52:00;15.20;;;11.90;;
9665;SDS011;4871;52.004;5.924;2023-07-22T05:53:00;15.20;;;11.90;;
9665;SDS011;4871;52.004;5.924;2023-07-22T05:54:00;15.20;;;11.90;;
9665;SDS011;4871;52.004;5.924;2023-07-22T05:55:00;15.20;;;11.90;;
9665;SDS011;4871;52.004;5.924;2023-07-22T05:56:00;15.20;;;11.90;;
9665;SDS011;4871;52.004;5.924;2023-07-22T05:57:00;15.20;;;11.90;;
9665;SDS011;4871;52.004;5.924;2023-07-22T05:58:05;15.20;;;11.90;;
9665;SDS011;4871;52.004;5.924;2023-07-22T05:59:00;15.20;;;11.90;;
9665;SDS011;4871;52.004;5.924;2023-07-22T06:00:00;15.20;;;11.90;;
9665;SDS011;4871;52.004;5.924;2023-07-22T06:01:00;15.20;;;11.90;;
9665;SDS011;4871;52.004;5.924;2023-07-22T06:02:00;15.20;;;11.90;;
9665;SDS011;4871;52.004;5.924;2023-07-22T06:03:00;15.20;;;11.90;;
9665;SDS011;4871;52.004;5.924;2023-07-22T06:04:00;15.20;;;11.90;;
9665;SDS011;4871;52.004;5.924;2023-07-22T06:05:01;16.40;;;12.60;;
9665;SDS011;4871;52.004;5.924;2023-07-22T06:06:00;16.40;;;12.60;;
9665;SDS011;4871;52.004;5.924;2023-07-22T06:07:00;16.40;;;12.60;;
9665;SDS011;4871;52.004;5.924;2023-07-22T06:08:00;16.40;;;12.60;;
9665;SDS011;4871;52.004;5.924;2023-07-22T06:09:00;16.40;;;12.60;;